createdAt,value
2024-04-18T00:01:26.316Z,101274.41
2024-04-18T00:03:53.151Z,101285.00
2024-04-18T00:06:19.926Z,101283.31
2024-04-18T00:08:46.760Z,101293.28
2024-04-18T00:11:13.501Z,101285.81
2024-04-18T00:13:40.295Z,101300.44
2024-04-18T00:16:07.083Z,101302.34
2024-04-18T00:18:33.956Z,101307.44
2024-04-18T00:21:00.653Z,101311.72
2024-04-18T00:23:27.353Z,101317.63
2024-04-18T00:25:54.015Z,101308.84
2024-04-18T00:28:20.706Z,101314.44
2024-04-18T00:30:47.989Z,101323.06
2024-04-18T00:33:14.933Z,101309.94
2024-04-18T00:35:41.889Z,101319.81
2024-04-18T00:38:08.582Z,101335.03
2024-04-18T00:40:35.392Z,101346.69
2024-04-18T00:43:02.230Z,101349.44
2024-04-18T00:45:28.983Z,101351.00
2024-04-18T00:47:55.902Z,101349.22
2024-04-18T00:50:22.997Z,101352.69
2024-04-18T00:52:49.902Z,101354.84
2024-04-18T00:55:17.311Z,101369.13
2024-04-18T00:57:44.532Z,101366.06
2024-04-18T01:00:12.139Z,101363.56
2024-04-18T01:02:39.935Z,101374.97
2024-04-18T01:05:06.943Z,101358.00
2024-04-18T01:07:33.734Z,101366.91
2024-04-18T01:10:00.531Z,101369.28
2024-04-18T01:12:27.286Z,101363.13
2024-04-18T01:14:54.024Z,101367.03
2024-04-18T01:17:20.846Z,101372.97
2024-04-18T01:19:47.617Z,101378.44
2024-04-18T01:22:15.487Z,101375.47
2024-04-18T01:24:42.523Z,101367.50
2024-04-18T01:27:09.270Z,101378.44
2024-04-18T01:29:36.030Z,101409.06
2024-04-18T01:32:02.794Z,101399.56
2024-04-18T01:34:29.658Z,101401.00
2024-04-18T01:36:56.421Z,101415.09
2024-04-18T01:39:24.503Z,101418.41
2024-04-18T01:41:51.240Z,101423.41
2024-04-18T01:44:17.989Z,101427.56
2024-04-18T01:46:44.662Z,101422.72
2024-04-18T01:49:11.446Z,101423.75
2024-04-18T01:51:39.904Z,101427.41
2024-04-18T01:54:06.767Z,101442.84
2024-04-18T01:56:33.575Z,101439.75
2024-04-18T01:59:05.429Z,101446.03
2024-04-18T02:01:32.392Z,101455.88
2024-04-18T02:03:59.481Z,101454.91
2024-04-18T02:06:26.383Z,101460.97
2024-04-18T02:08:56.905Z,101473.66
2024-04-18T02:11:24.185Z,101476.84
2024-04-18T02:13:50.908Z,101483.47
2024-04-18T02:16:17.576Z,101480.13
2024-04-18T02:18:44.368Z,101481.78
2024-04-18T02:21:11.158Z,101471.84
2024-04-18T02:23:37.920Z,101487.31
2024-04-18T02:26:04.809Z,101473.09
2024-04-18T02:28:31.638Z,101482.59
2024-04-18T02:30:58.965Z,101479.97
2024-04-18T02:33:25.812Z,101489.81
2024-04-18T02:35:52.551Z,101491.94
2024-04-18T02:38:19.313Z,101501.63
2024-04-18T02:40:46.033Z,101489.06
2024-04-18T02:43:12.767Z,101508.84
2024-04-18T02:45:39.605Z,101515.03
2024-04-18T02:48:06.646Z,101505.69
2024-04-18T02:50:33.407Z,101497.50
2024-04-18T02:53:00.090Z,101487.94
2024-04-18T02:55:26.767Z,101477.63
2024-04-18T02:57:56.018Z,101462.00
2024-04-18T03:00:22.845Z,101456.53
2024-04-18T03:02:52.425Z,101445.63
2024-04-18T03:05:19.138Z,101407.00
2024-04-18T03:07:45.859Z,101375.88
2024-04-18T03:10:12.619Z,101365.09
2024-04-18T03:12:39.498Z,101360.13
2024-04-18T03:15:06.679Z,101362.25
2024-04-18T03:17:33.470Z,101349.69
2024-04-18T03:20:00.343Z,100988.59
2024-04-18T03:22:27.940Z,100996.38
2024-04-18T03:24:54.912Z,100998.78
2024-04-18T03:27:21.724Z,101002.94
2024-04-18T03:29:48.470Z,101008.38
2024-04-18T03:32:16.409Z,101020.53
2024-04-18T03:34:43.225Z,101023.28
2024-04-18T03:37:10.025Z,101047.03
2024-04-18T03:39:36.879Z,101053.31
2024-04-18T03:42:03.718Z,101048.59
2024-04-18T03:44:30.562Z,101053.22
2024-04-18T03:46:57.297Z,101062.63
2024-04-18T03:49:24.004Z,101068.78
2024-04-18T03:51:50.769Z,101071.63
2024-04-18T03:54:17.683Z,101079.84
2024-04-18T03:56:44.433Z,101076.38
2024-04-18T03:59:11.182Z,101082.91
2024-04-18T04:01:38.167Z,101088.97
2024-04-18T04:04:05.054Z,101088.34
2024-04-18T04:06:33.609Z,101075.44
2024-04-18T04:09:01.847Z,101075.31
2024-04-18T04:11:29.274Z,101089.19
2024-04-18T04:13:59.494Z,101088.47
2024-04-18T04:16:30.458Z,101094.63
2024-04-18T04:18:57.836Z,101099.00
2024-04-18T04:21:27.382Z,101103.63
2024-04-18T04:23:54.527Z,101106.25
2024-04-18T04:26:21.287Z,101120.25
2024-04-18T04:28:48.029Z,101113.59
2024-04-18T04:31:14.793Z,101111.34
2024-04-18T04:33:41.864Z,101125.94
2024-04-18T04:36:08.643Z,101106.75
2024-04-18T04:38:35.434Z,101106.88
2024-04-18T04:41:02.179Z,101107.69
2024-04-18T04:43:28.906Z,101086.84
2024-04-18T04:45:56.130Z,101094.53
2024-04-18T04:48:23.165Z,101097.63
2024-04-18T04:51:00.913Z,101096.41
2024-04-18T04:53:28.248Z,101105.91
2024-04-18T04:55:57.180Z,101103.88
2024-04-18T04:58:24.219Z,101080.44
2024-04-18T05:00:51.380Z,101099.13
2024-04-18T05:03:18.335Z,101083.97
2024-04-18T05:05:45.543Z,101099.22
2024-04-18T05:08:12.265Z,101102.16
2024-04-18T05:10:46.317Z,101100.16
2024-04-18T05:13:13.964Z,101097.38
2024-04-18T05:15:41.061Z,101097.94
2024-04-18T05:18:11.068Z,101107.66
2024-04-18T05:20:39.368Z,101100.28
2024-04-18T05:23:08.248Z,101095.59
2024-04-18T05:25:35.628Z,101086.69
2024-04-18T05:28:11.579Z,101082.84
2024-04-18T05:30:58.034Z,101052.63
2024-04-18T05:33:31.406Z,101031.53
2024-04-18T05:35:58.438Z,101006.63
2024-04-18T05:38:25.603Z,101005.09
2024-04-18T05:40:52.922Z,101017.66
2024-04-18T05:43:19.967Z,101026.19
2024-04-18T05:45:48.359Z,101045.31
2024-04-18T05:48:15.299Z,101054.25
2024-04-18T05:50:43.068Z,101054.81
2024-04-18T05:53:09.886Z,101046.97
2024-04-18T05:55:36.636Z,101055.50
2024-04-18T05:58:03.485Z,101057.16
2024-04-18T06:00:30.189Z,101061.84
2024-04-18T06:02:56.966Z,101045.19
2024-04-18T06:05:23.739Z,101040.78
2024-04-18T06:07:50.445Z,101044.50
2024-04-18T06:10:18.213Z,101029.56
2024-04-18T06:12:45.052Z,101029.38
2024-04-18T06:15:11.845Z,101014.84
2024-04-18T06:17:39.069Z,101018.56
2024-04-18T06:20:06.515Z,101026.66
2024-04-18T06:22:33.299Z,101019.06
2024-04-18T06:25:00.301Z,101022.16
2024-04-18T06:27:27.164Z,101009.97
2024-04-18T06:29:54.318Z,101014.13
2024-04-18T06:32:22.107Z,101004.88
2024-04-18T06:34:48.949Z,100988.94
2024-04-18T06:37:16.121Z,100988.16
2024-04-18T06:39:43.057Z,100974.97
2024-04-18T06:42:09.956Z,100947.91
2024-04-18T06:44:37.449Z,100911.25
2024-04-18T06:47:04.462Z,100895.13
2024-04-18T06:49:31.243Z,100884.16
2024-04-18T06:51:58.108Z,100863.28
2024-04-18T06:54:28.013Z,100858.50
2024-04-18T06:56:55.756Z,100849.06
2024-04-18T06:59:22.498Z,100841.19
2024-04-18T07:01:49.246Z,100814.06
2024-04-18T07:04:16.079Z,100784.13
2024-04-18T07:06:42.917Z,100815.88
2024-04-18T07:09:09.882Z,100845.56
2024-04-18T07:11:36.652Z,100860.59
2024-04-18T07:14:03.437Z,100883.72
2024-04-18T07:16:30.222Z,100898.19
2024-04-18T07:18:57.236Z,100839.59
2024-04-18T07:21:24.066Z,100839.53
2024-04-18T07:23:50.935Z,100815.13
2024-04-18T07:26:17.863Z,100814.75
2024-04-18T07:28:44.638Z,100789.59
2024-04-18T07:31:11.339Z,100751.25
2024-04-18T07:33:38.663Z,100697.78
2024-04-18T07:36:05.793Z,100672.84
2024-04-18T07:38:32.508Z,100686.97
2024-04-18T07:40:59.294Z,100656.50
2024-04-18T07:43:26.026Z,100650.44
2024-04-18T07:45:52.885Z,100644.63
2024-04-18T07:48:19.763Z,100646.59
2024-04-18T07:50:46.524Z,100649.44
2024-04-18T07:53:13.223Z,100660.28
2024-04-18T07:55:42.709Z,100683.31
2024-04-18T07:58:10.211Z,100693.75
2024-04-18T08:00:38.438Z,100676.44
2024-04-18T08:03:09.477Z,100717.16
2024-04-18T08:05:40.240Z,100758.03
2024-04-18T08:08:10.721Z,101031.84
2024-04-18T08:10:52.965Z,101276.84
2024-04-18T08:13:30.311Z,101901.72
2024-04-18T08:16:02.295Z,101867.00
2024-04-18T08:18:29.098Z,101815.03
2024-04-18T08:20:58.009Z,101747.28
2024-04-18T08:23:27.945Z,101706.41
2024-04-18T08:25:55.227Z,101630.94
2024-04-18T08:28:22.081Z,101565.91
2024-04-18T08:30:48.906Z,101438.81
2024-04-18T08:33:15.978Z,101395.94
2024-04-18T08:35:45.793Z,101423.03
2024-04-18T08:38:13.545Z,101448.72
2024-04-18T08:40:45.843Z,101521.50
2024-04-18T08:43:13.354Z,101632.38
2024-04-18T08:45:42.128Z,101730.91
2024-04-18T08:48:11.884Z,101913.31
2024-04-18T08:50:43.009Z,102038.63
2024-04-18T08:53:10.959Z,102142.31
2024-04-18T08:55:40.350Z,102201.94
2024-04-18T08:58:09.113Z,102276.50
2024-04-18T09:00:35.888Z,102356.00
2024-04-18T09:03:03.149Z,102427.19
2024-04-18T09:05:30.033Z,102459.41
2024-04-18T09:07:56.828Z,102492.56
2024-04-18T09:10:27.710Z,102506.28
2024-04-18T09:12:55.693Z,102500.78
2024-04-18T09:15:24.874Z,102499.50
2024-04-18T09:18:08.701Z,102485.97
2024-04-18T09:20:38.346Z,102474.72
2024-04-18T09:23:05.452Z,102488.50
2024-04-18T09:25:38.411Z,102502.09
2024-04-18T09:28:06.532Z,102518.94
2024-04-18T09:30:33.563Z,102536.41
2024-04-18T09:33:06.639Z,102539.22
2024-04-18T09:35:36.991Z,102534.88
2024-04-18T09:38:10.215Z,102528.13
2024-04-18T09:40:42.426Z,102550.44
2024-04-18T09:43:32.782Z,102544.88
2024-04-18T09:46:06.628Z,102549.41
2024-04-18T09:48:34.489Z,102531.84
2024-04-18T09:51:03.915Z,102531.13
2024-04-18T09:53:34.246Z,102528.97
2024-04-18T09:56:01.720Z,102516.88
2024-04-18T09:58:29.227Z,102503.03
2024-04-18T10:00:57.532Z,102484.31
2024-04-18T10:03:29.510Z,102478.66
2024-04-18T10:06:02.066Z,102498.44
2024-04-18T10:08:33.981Z,102532.53
2024-04-18T10:11:01.669Z,102542.28
2024-04-18T10:13:29.189Z,102559.28
2024-04-18T10:16:11.836Z,102554.13
2024-04-18T10:18:40.686Z,102566.25
2024-04-18T10:21:36.479Z,102565.22
2024-04-18T10:24:11.085Z,102566.91
2024-04-18T10:26:38.891Z,102570.75
2024-04-18T10:29:22.057Z,102567.72
2024-04-18T10:31:48.927Z,102578.38
2024-04-18T10:34:15.659Z,102574.41
2024-04-18T10:36:44.949Z,102586.22
2024-04-18T10:39:31.705Z,102577.69
2024-04-18T10:42:11.922Z,102575.72
2024-04-18T10:44:39.364Z,102573.00
2024-04-18T10:47:07.351Z,102569.78
2024-04-18T10:49:35.145Z,102556.78
2024-04-18T10:52:02.447Z,102555.47
2024-04-18T10:54:29.242Z,102549.06
2024-04-18T10:56:56.670Z,102541.28
2024-04-18T10:59:26.120Z,102549.28
2024-04-18T11:02:03.695Z,102548.25
2024-04-18T11:04:30.593Z,102551.78
2024-04-18T11:06:57.343Z,102545.72
2024-04-18T11:09:26.406Z,102572.38
2024-04-18T11:11:54.050Z,102588.41
2024-04-18T11:14:26.796Z,102588.09
2024-04-18T11:16:57.971Z,102576.34
2024-04-18T11:19:28.650Z,102576.53
2024-04-18T11:21:55.383Z,102574.63
2024-04-18T11:24:28.239Z,102588.59
2024-04-18T11:26:58.057Z,102582.19
2024-04-18T11:29:28.779Z,102567.34
2024-04-18T11:32:09.001Z,102582.13
2024-04-18T11:34:38.442Z,102564.63
2024-04-18T11:37:08.857Z,102590.22
2024-04-18T11:39:35.621Z,102595.53
2024-04-18T11:42:02.570Z,102601.81
2024-04-18T11:44:30.711Z,102592.50
2024-04-18T11:46:58.466Z,102593.13
2024-04-18T11:49:25.527Z,102588.31
2024-04-18T11:51:52.440Z,102585.84
2024-04-18T11:54:19.258Z,102584.22
2024-04-18T11:56:47.070Z,102581.69
2024-04-18T11:59:15.259Z,102583.72
2024-04-18T12:01:42.013Z,102593.25
2024-04-18T12:04:08.958Z,102598.63
2024-04-18T12:06:36.133Z,102594.09
2024-04-18T12:09:02.904Z,102589.94
2024-04-18T12:11:31.670Z,102590.06
2024-04-18T12:13:58.622Z,102598.19
2024-04-18T12:16:26.041Z,102593.06
2024-04-18T12:18:53.005Z,102614.88
2024-04-18T12:21:19.771Z,102615.41
2024-04-18T12:23:46.479Z,102601.94
2024-04-18T12:26:13.578Z,102594.25
2024-04-18T12:28:40.349Z,102595.59
2024-04-18T12:31:07.144Z,102593.94
2024-04-18T12:33:33.917Z,102587.59
2024-04-18T12:36:00.766Z,102592.03
2024-04-18T12:38:27.563Z,102592.34
2024-04-18T12:40:54.304Z,102599.91
2024-04-18T12:43:21.082Z,102606.47
2024-04-18T12:45:48.059Z,102594.09
2024-04-18T12:48:15.191Z,102602.28
2024-04-18T12:50:42.020Z,102596.47
2024-04-18T12:53:08.794Z,102598.88
2024-04-18T12:55:36.933Z,102594.38
2024-04-18T12:58:05.442Z,102603.34
2024-04-18T13:00:32.435Z,102600.91
2024-04-18T13:02:59.399Z,102597.19
2024-04-18T13:05:26.413Z,102598.13
2024-04-18T13:07:56.576Z,102588.09
2024-04-18T13:10:24.679Z,102578.28
2024-04-18T13:12:51.424Z,102580.81
2024-04-18T13:15:18.304Z,102589.38
2024-04-18T13:17:46.164Z,102593.97
2024-04-18T13:20:12.993Z,102605.97
2024-04-18T13:22:39.805Z,102588.72
2024-04-18T13:25:06.522Z,102598.69
2024-04-18T13:27:33.357Z,102599.25
2024-04-18T13:30:00.369Z,102592.38
2024-04-18T13:32:27.291Z,102592.09
2024-04-18T13:34:55.833Z,102592.34
2024-04-18T13:37:22.649Z,102598.69
2024-04-18T13:39:51.801Z,102602.63
2024-04-18T13:42:19.459Z,102606.56
2024-04-18T13:44:46.303Z,102597.66
2024-04-18T13:47:13.234Z,102590.91
2024-04-18T13:49:40.014Z,102591.19
2024-04-18T13:52:09.623Z,102585.59
2024-04-18T13:54:36.624Z,102601.22
2024-04-18T13:57:06.568Z,102594.09
2024-04-18T13:59:33.677Z,102592.00
2024-04-18T14:02:04.076Z,102589.38
2024-04-18T14:04:30.994Z,102596.81
2024-04-18T14:06:57.764Z,102592.34
2024-04-18T14:09:33.566Z,102578.94
2024-04-18T14:12:00.401Z,102584.97
2024-04-18T14:14:29.558Z,102579.09
2024-04-18T14:17:14.909Z,102582.06
2024-04-18T14:19:41.742Z,102578.72
2024-04-18T14:22:08.523Z,102567.97
2024-04-18T14:24:35.770Z,102569.97
2024-04-18T14:27:03.243Z,102569.50
2024-04-18T14:29:30.266Z,102570.81
2024-04-18T14:31:59.285Z,102566.28
2024-04-18T14:34:27.985Z,102571.38
2024-04-18T14:36:56.898Z,102559.88
2024-04-18T14:39:26.211Z,102551.38
2024-04-18T14:41:54.018Z,102561.81
2024-04-18T14:44:20.787Z,102549.56
2024-04-18T14:46:47.520Z,102545.38
2024-04-18T14:49:14.357Z,102564.38
2024-04-18T14:51:41.250Z,102548.56
2024-04-18T14:54:08.228Z,102556.03
2024-04-18T14:56:35.025Z,102554.19
2024-04-18T14:59:02.558Z,102554.19
2024-04-18T15:01:29.383Z,102558.03
2024-04-18T15:03:56.354Z,102557.19
2024-04-18T15:06:23.229Z,102555.88
2024-04-18T15:08:50.004Z,102561.88
2024-04-18T15:11:16.954Z,102561.03
2024-04-18T15:13:43.738Z,102546.03
2024-04-18T15:16:10.786Z,102543.00
2024-04-18T15:18:37.848Z,102551.38
2024-04-18T15:21:04.812Z,102551.88
2024-04-18T15:23:31.709Z,102547.38
2024-04-18T15:25:58.460Z,102554.06
2024-04-18T15:28:30.527Z,102559.09
2024-04-18T15:30:59.236Z,102556.59
2024-04-18T15:33:26.059Z,102555.16
2024-04-18T15:35:56.031Z,102558.06
2024-04-18T15:38:22.775Z,102561.69
2024-04-18T15:40:49.490Z,102557.09
2024-04-18T15:43:16.196Z,102557.97
2024-04-18T15:45:43.045Z,102557.09
2024-04-18T15:48:10.034Z,102551.47
2024-04-18T15:50:37.069Z,102545.88
2024-04-18T15:53:03.947Z,102545.03
2024-04-18T15:55:31.200Z,102539.13
2024-04-18T15:57:59.584Z,102539.22
2024-04-18T16:00:26.387Z,102535.72
2024-04-18T16:02:56.475Z,102541.63
2024-04-18T16:05:26.297Z,102541.22
2024-04-18T16:07:53.129Z,102542.63
2024-04-18T16:10:19.953Z,102526.91
2024-04-18T16:12:46.770Z,102537.84
2024-04-18T16:15:14.940Z,102531.28
2024-04-18T16:17:44.929Z,102528.66
2024-04-18T16:20:15.524Z,102530.25
2024-04-18T16:22:43.336Z,102525.84
2024-04-18T16:25:10.102Z,102527.47
2024-04-18T16:27:37.231Z,102531.28
2024-04-18T16:30:04.534Z,102526.72
2024-04-18T16:32:31.310Z,102525.09
2024-04-18T16:34:58.189Z,102526.56
2024-04-18T16:37:25.475Z,102511.75
2024-04-18T16:39:52.344Z,102508.72
2024-04-18T16:42:19.244Z,102524.78
2024-04-18T16:44:46.099Z,102528.22
2024-04-18T16:47:12.859Z,102529.75
2024-04-18T16:49:42.010Z,102517.88
2024-04-18T16:52:10.982Z,102525.00
2024-04-18T16:54:38.504Z,102525.00
2024-04-18T16:57:05.734Z,102514.84
2024-04-18T16:59:32.776Z,102521.41
2024-04-18T17:01:59.448Z,102518.19
2024-04-18T17:04:26.407Z,102518.59
2024-04-18T17:06:55.843Z,102508.91
2024-04-18T17:09:22.699Z,102506.97
2024-04-18T17:11:49.577Z,102504.38
2024-04-18T17:14:16.601Z,102507.16
2024-04-18T17:16:43.364Z,102503.56
2024-04-18T17:19:10.144Z,102498.84
2024-04-18T17:21:40.200Z,102492.06
2024-04-18T17:24:07.069Z,102490.94
2024-04-18T17:26:33.916Z,102488.88
2024-04-18T17:29:01.123Z,102488.38
2024-04-18T17:31:31.010Z,102478.78
2024-04-18T17:33:57.841Z,102480.03
2024-04-18T17:36:24.911Z,102477.00
2024-04-18T17:38:51.918Z,102471.44
2024-04-18T17:41:18.601Z,102481.91
2024-04-18T17:43:47.260Z,102471.78
2024-04-18T17:46:14.106Z,102464.94
2024-04-18T17:48:41.018Z,102460.66
2024-04-18T17:51:07.777Z,102459.81
2024-04-18T17:53:34.564Z,102448.28
2024-04-18T17:56:01.342Z,102451.91
2024-04-18T17:58:28.087Z,102446.91
2024-04-18T18:00:55.062Z,102450.94
2024-04-18T18:03:22.510Z,102442.75
2024-04-18T18:05:49.338Z,102441.19
2024-04-18T18:08:17.941Z,102434.84
2024-04-18T18:10:44.839Z,102430.94
2024-04-18T18:13:13.935Z,102435.94
2024-04-18T18:15:40.824Z,102428.69
2024-04-18T18:18:08.066Z,102425.38
2024-04-18T18:20:36.158Z,102421.19
2024-04-18T18:23:02.907Z,102423.13
2024-04-18T18:25:29.645Z,102421.75
2024-04-18T18:27:56.432Z,102405.78
2024-04-18T18:30:23.248Z,102398.81
2024-04-18T18:32:50.087Z,102386.47
2024-04-18T18:35:16.979Z,102377.84
2024-04-18T18:37:43.628Z,102366.00
2024-04-18T18:40:11.020Z,102357.53
2024-04-18T18:42:38.212Z,102356.00
2024-04-18T18:45:10.469Z,102354.44
2024-04-18T18:47:37.905Z,102346.50
2024-04-18T18:50:04.943Z,102334.72
2024-04-18T18:52:31.646Z,102334.31
2024-04-18T18:54:59.637Z,102330.56
2024-04-18T18:57:26.424Z,102314.84
2024-04-18T18:59:53.076Z,102310.69
2024-04-18T19:02:19.941Z,102321.94
2024-04-18T19:04:47.595Z,102314.13
2024-04-18T19:07:14.355Z,102310.81
2024-04-18T19:09:42.544Z,102307.06
2024-04-18T19:12:09.767Z,102309.00
2024-04-18T19:14:36.574Z,102297.78
2024-04-18T19:17:03.921Z,102294.00
2024-04-18T19:19:31.189Z,102289.16
2024-04-18T19:21:57.973Z,102282.19
2024-04-18T19:24:27.802Z,102282.75
2024-04-18T19:26:54.577Z,102276.50
2024-04-18T19:29:27.391Z,102276.50
2024-04-18T19:32:03.102Z,102266.63
2024-04-18T19:34:29.924Z,102271.91
2024-04-18T19:36:56.718Z,102258.03
2024-04-18T19:39:25.877Z,102257.47
2024-04-18T19:41:52.735Z,102247.06
2024-04-18T19:44:19.419Z,102234.81
2024-04-18T19:46:46.219Z,102243.44
2024-04-18T19:49:13.753Z,102242.44
2024-04-18T19:51:40.655Z,102233.16
2024-04-18T19:54:07.585Z,102230.38
2024-04-18T19:56:34.343Z,102223.72
2024-04-18T19:59:01.030Z,102221.06
2024-04-18T20:01:27.922Z,102219.28
2024-04-18T20:03:55.081Z,102207.06
2024-04-18T20:06:22.187Z,102198.44
2024-04-18T20:08:49.227Z,102194.97
2024-04-18T20:11:16.163Z,102196.50
2024-04-18T20:13:42.961Z,102180.94
2024-04-18T20:16:11.633Z,102172.34
2024-04-18T20:18:38.735Z,102159.00
2024-04-18T20:21:05.665Z,102149.16
2024-04-18T20:23:32.441Z,102129.13
2024-04-18T20:25:59.226Z,102120.94
2024-04-18T20:28:25.956Z,102101.91
2024-04-18T20:30:52.852Z,102096.78
2024-04-18T20:33:19.732Z,102078.31
2024-04-18T20:35:46.519Z,102066.66
2024-04-18T20:38:13.402Z,102052.31
2024-04-18T20:40:41.379Z,102054.66
2024-04-18T20:43:08.526Z,102044.00
2024-04-18T20:45:35.399Z,102039.38
2024-04-18T20:48:02.373Z,102030.50
2024-04-18T20:50:29.216Z,102033.38
2024-04-18T20:52:55.916Z,102019.34
2024-04-18T20:55:22.738Z,102019.78
2024-04-18T20:57:49.711Z,102002.97
2024-04-18T21:00:28.923Z,101979.75
2024-04-18T21:02:55.899Z,101985.84
2024-04-18T21:05:22.773Z,101955.47
2024-04-18T21:07:49.721Z,101949.88
2024-04-18T21:10:16.541Z,101954.94
2024-04-18T21:12:43.506Z,101940.00
2024-04-18T21:15:10.492Z,101942.91
2024-04-18T21:17:37.446Z,101957.03
2024-04-18T21:20:04.479Z,101933.44
2024-04-18T21:22:32.435Z,101926.94
2024-04-18T21:24:59.327Z,101916.38
2024-04-18T21:27:26.258Z,101909.91
2024-04-18T21:29:52.954Z,101881.88
2024-04-18T21:32:24.358Z,101870.31
2024-04-18T21:34:51.112Z,101849.09
2024-04-18T21:37:17.976Z,101830.88
2024-04-18T21:39:45.924Z,101807.81
2024-04-18T21:42:12.772Z,101810.16
2024-04-18T21:44:39.595Z,101800.22
2024-04-18T21:47:06.528Z,101763.72
2024-04-18T21:49:33.265Z,101754.69
2024-04-18T21:52:00.063Z,101747.94
2024-04-18T21:54:26.803Z,101733.09
2024-04-18T21:56:53.797Z,101725.03
2024-04-18T21:59:20.518Z,101706.88
2024-04-18T22:01:47.306Z,101684.53
2024-04-18T22:04:14.216Z,101661.06
2024-04-18T22:06:41.353Z,101642.75
2024-04-18T22:09:08.168Z,101622.47
2024-04-18T22:11:35.031Z,101608.44
2024-04-18T22:14:01.896Z,101579.91
2024-04-18T22:16:28.626Z,101549.50
2024-04-18T22:18:55.559Z,101511.88
2024-04-18T22:21:22.337Z,101490.28
2024-04-18T22:23:52.085Z,101472.44
2024-04-18T22:26:19.587Z,101450.34
2024-04-18T22:28:46.348Z,101418.50
2024-04-18T22:31:14.162Z,101397.72
2024-04-18T22:33:41.335Z,101384.34
2024-04-18T22:36:08.520Z,101362.72
2024-04-18T22:38:35.384Z,101358.44
2024-04-18T22:41:02.132Z,101338.47
2024-04-18T22:43:28.973Z,101299.09
2024-04-18T22:45:55.742Z,101284.09
2024-04-18T22:48:22.834Z,101281.78
2024-04-18T22:50:49.794Z,101258.19
2024-04-18T22:53:16.477Z,101254.09
2024-04-18T22:55:43.261Z,101231.19
2024-04-18T22:58:11.449Z,101208.41
2024-04-18T23:00:39.455Z,101185.03
2024-04-18T23:03:07.331Z,101168.53
2024-04-18T23:05:34.375Z,101149.56
2024-04-18T23:08:01.087Z,101143.34
2024-04-18T23:10:27.797Z,101120.91
2024-04-18T23:12:54.729Z,101105.09
2024-04-18T23:15:21.439Z,101084.00
2024-04-18T23:17:48.337Z,101071.31
2024-04-18T23:20:15.094Z,101061.59
2024-04-18T23:22:41.872Z,101039.03
2024-04-18T23:25:08.630Z,101039.50
2024-04-18T23:27:35.398Z,101029.28
2024-04-18T23:30:03.622Z,101006.88
2024-04-18T23:32:30.973Z,101010.81
2024-04-18T23:34:59.081Z,100977.53
2024-04-18T23:37:25.995Z,100966.84
2024-04-18T23:39:52.828Z,100951.19
2024-04-18T23:42:19.648Z,100924.66
2024-04-18T23:44:46.589Z,100892.38
2024-04-18T23:47:13.358Z,100892.38
2024-04-18T23:49:40.224Z,100875.88
2024-04-18T23:52:07.034Z,100845.63
2024-04-18T23:54:33.762Z,100848.06
2024-04-18T23:57:00.545Z,100832.41
2024-04-18T23:59:28.603Z,100806.72
